sensor_id;sensor_type;location;lat;lon;timestamp;pressure;altitude;pressure_sealevel;temperature
70969;BMP280;58630;43.022;25.100;2023-06-10T00:02:20;;;;24.60
70969;BMP280;58630;43.022;25.100;2023-06-10T00:04:46;;;;24.40
70969;BMP280;58630;43.022;25.100;2023-06-10T00:07:12;;;;24.20
70969;BMP280;58630;43.022;25.100;2023-06-10T00:09:38;;;;24.30
70969;BMP280;58630;43.022;25.100;2023-06-10T00:12:04;;;;24.40
70969;BMP280;58630;43.022;25.100;2023-06-10T00:14:30;;;;24.50
70969;BMP280;58630;43.022;25.100;2023-06-10T00:16:56;;;;24.50
70969;BMP280;58630;43.022;25.100;2023-06-10T00:19:22;;;;24.40
70969;BMP280;58630;43.022;25.100;2023-06-10T00:21:51;;;;24.30
70969;BMP280;58630;43.022;25.100;2023-06-10T00:24:17;;;;24.40
70969;BMP280;58630;43.022;25.100;2023-06-10T00:26:43;;;;24.40
70969;BMP280;58630;43.022;25.100;2023-06-10T00:29:09;;;;24.40
70969;BMP280;58630;43.022;25.100;2023-06-10T00:31:35;;;;24.40
70969;BMP280;58630;43.022;25.100;2023-06-10T00:34:01;;;;24.30
70969;BMP280;58630;43.022;25.100;2023-06-10T00:36:27;;;;24.30
70969;BMP280;58630;43.022;25.100;2023-06-10T00:38:53;;;;24.30
70969;BMP280;58630;43.022;25.100;2023-06-10T00:41:19;;;;24.20
70969;BMP280;58630;43.022;25.100;2023-06-10T00:43:44;;;;24.10
70969;BMP280;58630;43.022;25.100;2023-06-10T00:46:11;;;;24.10
70969;BMP280;58630;43.022;25.100;2023-06-10T00:48:37;;;;24.10
70969;BMP280;58630;43.022;25.100;2023-06-10T00:51:04;;;;24.10
70969;BMP280;58630;43.022;25.100;2023-06-10T00:53:30;;;;24.10
70969;BMP280;58630;43.022;25.100;2023-06-10T00:55:56;;;;24.10
70969;BMP280;58630;43.022;25.100;2023-06-10T00:58:22;;;;24.20
70969;BMP280;58630;43.022;25.100;2023-06-10T01:00:48;;;;24.10
70969;BMP280;58630;43.022;25.100;2023-06-10T01:03:15;;;;24.10
70969;BMP280;58630;43.022;25.100;2023-06-10T01:05:42;;;;24.00
70969;BMP280;58630;43.022;25.100;2023-06-10T01:10:55;;;;24.00
70969;BMP280;58630;43.022;25.100;2023-06-10T01:13:23;;;;24.10
70969;BMP280;58630;43.022;25.100;2023-06-10T01:15:49;;;;24.10
70969;BMP280;58630;43.022;25.100;2023-06-10T01:18:15;;;;24.10
70969;BMP280;58630;43.022;25.100;2023-06-10T01:20:42;;;;24.10
70969;BMP280;58630;43.022;25.100;2023-06-10T01:23:12;;;;24.10
70969;BMP280;58630;43.022;25.100;2023-06-10T01:25:38;;;;24.10
70969;BMP280;58630;43.022;25.100;2023-06-10T01:30:42;;;;24.10
70969;BMP280;58630;43.022;25.100;2023-06-10T01:33:10;;;;24.10
70969;BMP280;58630;43.022;25.100;2023-06-10T01:35:38;;;;24.00
70969;BMP280;58630;43.022;25.100;2023-06-10T01:38:04;;;;24.00
70969;BMP280;58630;43.022;25.100;2023-06-10T01:40:30;;;;24.00
70969;BMP280;58630;43.022;25.100;2023-06-10T01:42:56;;;;23.90
70969;BMP280;58630;43.022;25.100;2023-06-10T01:45:21;;;;23.90
70969;BMP280;58630;43.022;25.100;2023-06-10T01:47:47;;;;23.90
70969;BMP280;58630;43.022;25.100;2023-06-10T01:50:13;;;;23.90
70969;BMP280;58630;43.022;25.100;2023-06-10T01:52:38;;;;23.90
70969;BMP280;58630;43.022;25.100;2023-06-10T01:55:04;;;;23.90
70969;BMP280;58630;43.022;25.100;2023-06-10T01:57:29;;;;23.90
70969;BMP280;58630;43.022;25.100;2023-06-10T01:59:55;;;;23.90
70969;BMP280;58630;43.022;25.100;2023-06-10T02:02:21;;;;23.90
70969;BMP280;58630;43.022;25.100;2023-06-10T02:04:47;;;;23.80
70969;BMP280;58630;43.022;25.100;2023-06-10T02:07:13;;;;23.70
70969;BMP280;58630;43.022;25.100;2023-06-10T02:09:38;;;;23.70
70969;BMP280;58630;43.022;25.100;2023-06-10T02:12:04;;;;23.70
70969;BMP280;58630;43.022;25.100;2023-06-10T02:14:32;;;;23.70
70969;BMP280;58630;43.022;25.100;2023-06-10T02:16:57;;;;23.70
70969;BMP280;58630;43.022;25.100;2023-06-10T02:19:23;;;;23.70
70969;BMP280;58630;43.022;25.100;2023-06-10T02:21:50;;;;23.70
70969;BMP280;58630;43.022;25.100;2023-06-10T02:24:16;;;;23.70
70969;BMP280;58630;43.022;25.100;2023-06-10T02:26:41;;;;23.60
70969;BMP280;58630;43.022;25.100;2023-06-10T02:29:07;;;;23.60
70969;BMP280;58630;43.022;25.100;2023-06-10T02:31:32;;;;23.50
70969;BMP280;58630;43.022;25.100;2023-06-10T02:34:01;;;;23.50
70969;BMP280;58630;43.022;25.100;2023-06-10T02:36:26;;;;23.30
70969;BMP280;58630;43.022;25.100;2023-06-10T02:38:53;;;;23.10
70969;BMP280;58630;43.022;25.100;2023-06-10T02:41:18;;;;23.00
70969;BMP280;58630;43.022;25.100;2023-06-10T02:43:44;;;;22.90
70969;BMP280;58630;43.022;25.100;2023-06-10T02:46:10;;;;22.90
70969;BMP280;58630;43.022;25.100;2023-06-10T02:48:42;;;;22.90
70969;BMP280;58630;43.022;25.100;2023-06-10T02:51:09;;;;22.70
70969;BMP280;58630;43.022;25.100;2023-06-10T02:53:35;;;;22.70
70969;BMP280;58630;43.022;25.100;2023-06-10T02:56:00;;;;22.80
70969;BMP280;58630;43.022;25.100;2023-06-10T02:58:27;;;;22.80
70969;BMP280;58630;43.022;25.100;2023-06-10T03:00:52;;;;22.90
70969;BMP280;58630;43.022;25.100;2023-06-10T03:03:18;;;;23.00
70969;BMP280;58630;43.022;25.100;2023-06-10T03:05:44;;;;23.00
70969;BMP280;58630;43.022;25.100;2023-06-10T03:08:09;;;;23.10
70969;BMP280;58630;43.022;25.100;2023-06-10T03:10:35;;;;23.10
70969;BMP280;58630;43.022;25.100;2023-06-10T03:13:00;;;;23.10
70969;BMP280;58630;43.022;25.100;2023-06-10T03:15:26;;;;23.20
70969;BMP280;58630;43.022;25.100;2023-06-10T03:17:54;;;;23.10
70969;BMP280;58630;43.022;25.100;2023-06-10T03:20:20;;;;23.20
70969;BMP280;58630;43.022;25.100;2023-06-10T03:22:47;;;;23.20
70969;BMP280;58630;43.022;25.100;2023-06-10T03:25:12;;;;23.20
70969;BMP280;58630;43.022;25.100;2023-06-10T03:27:41;;;;23.20
70969;BMP280;58630;43.022;25.100;2023-06-10T03:30:06;;;;23.10
70969;BMP280;58630;43.022;25.100;2023-06-10T03:32:32;;;;23.10
70969;BMP280;58630;43.022;25.100;2023-06-10T03:34:58;;;;23.10
70969;BMP280;58630;43.022;25.100;2023-06-10T03:37:26;;;;23.10
70969;BMP280;58630;43.022;25.100;2023-06-10T03:39:52;;;;23.10
70969;BMP280;58630;43.022;25.100;2023-06-10T03:42:17;;;;23.10
70969;BMP280;58630;43.022;25.100;2023-06-10T03:44:43;;;;23.10
70969;BMP280;58630;43.022;25.100;2023-06-10T03:47:08;;;;23.10
70969;BMP280;58630;43.022;25.100;2023-06-10T03:49:34;;;;23.00
70969;BMP280;58630;43.022;25.100;2023-06-10T03:52:01;;;;22.90
70969;BMP280;58630;43.022;25.100;2023-06-10T03:54:27;;;;22.90
70969;BMP280;58630;43.022;25.100;2023-06-10T03:56:53;;;;22.80
70969;BMP280;58630;43.022;25.100;2023-06-10T03:59:18;;;;22.90
70969;BMP280;58630;43.022;25.100;2023-06-10T04:01:44;;;;22.90
70969;BMP280;58630;43.022;25.100;2023-06-10T04:04:13;;;;22.90
70969;BMP280;58630;43.022;25.100;2023-06-10T04:06:40;;;;22.90
70969;BMP280;58630;43.022;25.100;2023-06-10T04:09:06;;;;22.90
70969;BMP280;58630;43.022;25.100;2023-06-10T04:11:32;;;;22.80
70969;BMP280;58630;43.022;25.100;2023-06-10T04:13:58;;;;22.80
70969;BMP280;58630;43.022;25.100;2023-06-10T04:16:23;;;;22.70
70969;BMP280;58630;43.022;25.100;2023-06-10T04:18:49;;;;22.70
70969;BMP280;58630;43.022;25.100;2023-06-10T04:21:15;;;;22.70
70969;BMP280;58630;43.022;25.100;2023-06-10T04:23:40;;;;22.70
70969;BMP280;58630;43.022;25.100;2023-06-10T04:26:06;;;;22.70
70969;BMP280;58630;43.022;25.100;2023-06-10T04:28:32;;;;22.60
70969;BMP280;58630;43.022;25.100;2023-06-10T04:30:58;;;;22.40
70969;BMP280;58630;43.022;25.100;2023-06-10T04:33:23;;;;22.40
70969;BMP280;58630;43.022;25.100;2023-06-10T04:35:49;;;;22.40
70969;BMP280;58630;43.022;25.100;2023-06-10T04:38:15;;;;22.40
70969;BMP280;58630;43.022;25.100;2023-06-10T04:40:41;;;;22.40
70969;BMP280;58630;43.022;25.100;2023-06-10T04:43:06;;;;22.30
70969;BMP280;58630;43.022;25.100;2023-06-10T04:45:32;;;;22.30
70969;BMP280;58630;43.022;25.100;2023-06-10T04:47:57;;;;22.40
70969;BMP280;58630;43.022;25.100;2023-06-10T04:50:23;;;;22.30
70969;BMP280;58630;43.022;25.100;2023-06-10T04:52:49;;;;22.10
70969;BMP280;58630;43.022;25.100;2023-06-10T04:55:15;;;;22.10
70969;BMP280;58630;43.022;25.100;2023-06-10T04:57:40;;;;22.10
70969;BMP280;58630;43.022;25.100;2023-06-10T05:00:06;;;;22.10
70969;BMP280;58630;43.022;25.100;2023-06-10T05:02:33;;;;22.10
70969;BMP280;58630;43.022;25.100;2023-06-10T05:04:59;;;;22.10
70969;BMP280;58630;43.022;25.100;2023-06-10T05:07:24;;;;22.10
70969;BMP280;58630;43.022;25.100;2023-06-10T05:09:50;;;;22.10
70969;BMP280;58630;43.022;25.100;2023-06-10T05:12:16;;;;22.10
70969;BMP280;58630;43.022;25.100;2023-06-10T05:14:41;;;;22.10
70969;BMP280;58630;43.022;25.100;2023-06-10T05:17:07;;;;22.20
70969;BMP280;58630;43.022;25.100;2023-06-10T05:19:32;;;;22.10
70969;BMP280;58630;43.022;25.100;2023-06-10T05:21:58;;;;22.20
70969;BMP280;58630;43.022;25.100;2023-06-10T05:24:23;;;;22.20
70969;BMP280;58630;43.022;25.100;2023-06-10T05:26:49;;;;22.10
70969;BMP280;58630;43.022;25.100;2023-06-10T05:29:14;;;;22.10
70969;BMP280;58630;43.022;25.100;2023-06-10T05:31:41;;;;22.00
70969;BMP280;58630;43.022;25.100;2023-06-10T05:34:06;;;;22.00
70969;BMP280;58630;43.022;25.100;2023-06-10T05:36:32;;;;22.00
70969;BMP280;58630;43.022;25.100;2023-06-10T05:38:57;;;;22.00
70969;BMP280;58630;43.022;25.100;2023-06-10T05:41:23;;;;22.10
70969;BMP280;58630;43.022;25.100;2023-06-10T05:43:49;;;;22.10
70969;BMP280;58630;43.022;25.100;2023-06-10T05:46:14;;;;22.20
70969;BMP280;58630;43.022;25.100;2023-06-10T05:48:40;;;;22.30
70969;BMP280;58630;43.022;25.100;2023-06-10T05:51:05;;;;22.30
70969;BMP280;58630;43.022;25.100;2023-06-10T05:53:31;;;;22.40
70969;BMP280;58630;43.022;25.100;2023-06-10T05:55:57;;;;22.40
70969;BMP280;58630;43.022;25.100;2023-06-10T05:58:23;;;;22.40
70969;BMP280;58630;43.022;25.100;2023-06-10T06:00:49;;;;22.40
70969;BMP280;58630;43.022;25.100;2023-06-10T06:03:14;;;;22.50
70969;BMP280;58630;43.022;25.100;2023-06-10T06:05:40;;;;22.50
70969;BMP280;58630;43.022;25.100;2023-06-10T06:08:05;;;;22.50
70969;BMP280;58630;43.022;25.100;2023-06-10T06:10:31;;;;22.50
70969;BMP280;58630;43.022;25.100;2023-06-10T06:12:57;;;;22.50
70969;BMP280;58630;43.022;25.100;2023-06-10T06:15:22;;;;22.50
70969;BMP280;58630;43.022;25.100;2023-06-10T06:17:48;;;;22.50
70969;BMP280;58630;43.022;25.100;2023-06-10T06:20:13;;;;22.50
70969;BMP280;58630;43.022;25.100;2023-06-10T06:22:39;;;;22.50
70969;BMP280;58630;43.022;25.100;2023-06-10T06:25:05;;;;22.50
70969;BMP280;58630;43.022;25.100;2023-06-10T06:27:31;;;;22.50
70969;BMP280;58630;43.022;25.100;2023-06-10T06:29:56;;;;22.50
70969;BMP280;58630;43.022;25.100;2023-06-10T06:32:22;;;;22.50
70969;BMP280;58630;43.022;25.100;2023-06-10T06:34:50;;;;22.50
70969;BMP280;58630;43.022;25.100;2023-06-10T06:37:22;;;;22.50
70969;BMP280;58630;43.022;25.100;2023-06-10T06:39:52;;;;22.50
70969;BMP280;58630;43.022;25.100;2023-06-10T06:42:18;;;;22.40
70969;BMP280;58630;43.022;25.100;2023-06-10T06:44:44;;;;22.40
70969;BMP280;58630;43.022;25.100;2023-06-10T06:47:10;;;;22.40
70969;BMP280;58630;43.022;25.100;2023-06-10T06:49:35;;;;22.50
70969;BMP280;58630;43.022;25.100;2023-06-10T06:52:01;;;;22.50
70969;BMP280;58630;43.022;25.100;2023-06-10T06:54:27;;;;22.50
70969;BMP280;58630;43.022;25.100;2023-06-10T06:56:52;;;;22.50
70969;BMP280;58630;43.022;25.100;2023-06-10T06:59:18;;;;22.50
70969;BMP280;58630;43.022;25.100;2023-06-10T07:01:44;;;;22.50
70969;BMP280;58630;43.022;25.100;2023-06-10T07:04:10;;;;22.50
70969;BMP280;58630;43.022;25.100;2023-06-10T07:06:36;;;;22.50
70969;BMP280;58630;43.022;25.100;2023-06-10T07:09:04;;;;22.50
70969;BMP280;58630;43.022;25.100;2023-06-10T07:11:29;;;;22.50
70969;BMP280;58630;43.022;25.100;2023-06-10T07:13:55;;;;22.50
70969;BMP280;58630;43.022;25.100;2023-06-10T07:16:21;;;;22.40
70969;BMP280;58630;43.022;25.100;2023-06-10T07:18:46;;;;22.50
70969;BMP280;58630;43.022;25.100;2023-06-10T07:21:12;;;;22.50
70969;BMP280;58630;43.022;25.100;2023-06-10T07:23:41;;;;22.50
70969;BMP280;58630;43.022;25.100;2023-06-10T07:26:06;;;;22.60
70969;BMP280;58630;43.022;25.100;2023-06-10T07:28:33;;;;22.60
70969;BMP280;58630;43.022;25.100;2023-06-10T07:30:58;;;;22.60
70969;BMP280;58630;43.022;25.100;2023-06-10T07:33:24;;;;22.50
70969;BMP280;58630;43.022;25.100;2023-06-10T07:35:49;;;;22.40
70969;BMP280;58630;43.022;25.100;2023-06-10T07:38:16;;;;22.40
70969;BMP280;58630;43.022;25.100;2023-06-10T07:40:42;;;;22.30
70969;BMP280;58630;43.022;25.100;2023-06-10T07:43:07;;;;22.40
70969;BMP280;58630;43.022;25.100;2023-06-10T07:45:33;;;;22.40
70969;BMP280;58630;43.022;25.100;2023-06-10T07:47:58;;;;22.50
70969;BMP280;58630;43.022;25.100;2023-06-10T07:50:24;;;;22.40
70969;BMP280;58630;43.022;25.100;2023-06-10T07:52:49;;;;22.40
70969;BMP280;58630;43.022;25.100;2023-06-10T07:55:15;;;;22.50
70969;BMP280;58630;43.022;25.100;2023-06-10T07:57:41;;;;22.40
70969;BMP280;58630;43.022;25.100;2023-06-10T08:00:06;;;;22.40
70969;BMP280;58630;43.022;25.100;2023-06-10T08:02:32;;;;22.40
70969;BMP280;58630;43.022;25.100;2023-06-10T08:04:58;;;;22.50
70969;BMP280;58630;43.022;25.100;2023-06-10T08:07:24;;;;22.50
70969;BMP280;58630;43.022;25.100;2023-06-10T08:09:50;;;;22.50
70969;BMP280;58630;43.022;25.100;2023-06-10T08:12:16;;;;22.50
70969;BMP280;58630;43.022;25.100;2023-06-10T08:14:41;;;;22.50
70969;BMP280;58630;43.022;25.100;2023-06-10T08:17:07;;;;22.50
70969;BMP280;58630;43.022;25.100;2023-06-10T08:19:32;;;;22.50
70969;BMP280;58630;43.022;25.100;2023-06-10T08:21:58;;;;22.60
70969;BMP280;58630;43.022;25.100;2023-06-10T08:24:23;;;;22.60
70969;BMP280;58630;43.022;25.100;2023-06-10T08:26:49;;;;22.70
70969;BMP280;58630;43.022;25.100;2023-06-10T08:29:14;;;;22.70
70969;BMP280;58630;43.022;25.100;2023-06-10T08:31:43;;;;22.80
70969;BMP280;58630;43.022;25.100;2023-06-10T08:34:09;;;;22.80
70969;BMP280;58630;43.022;25.100;2023-06-10T08:36:35;;;;22.90
70969;BMP280;58630;43.022;25.100;2023-06-10T08:39:01;;;;22.90
70969;BMP280;58630;43.022;25.100;2023-06-10T08:41:28;;;;22.90
70969;BMP280;58630;43.022;25.100;2023-06-10T08:44:17;;;;22.90
70969;BMP280;58630;43.022;25.100;2023-06-10T08:46:44;;;;22.90
70969;BMP280;58630;43.022;25.100;2023-06-10T08:49:10;;;;23.00
70969;BMP280;58630;43.022;25.100;2023-06-10T08:51:39;;;;23.00
70969;BMP280;58630;43.022;25.100;2023-06-10T08:54:08;;;;23.00
70969;BMP280;58630;43.022;25.100;2023-06-10T08:56:38;;;;23.00
70969;BMP280;58630;43.022;25.100;2023-06-10T08:59:04;;;;23.10
70969;BMP280;58630;43.022;25.100;2023-06-10T09:03:13;;;;23.10
70969;BMP280;58630;43.022;25.100;2023-06-10T09:05:39;;;;23.20
70969;BMP280;58630;43.022;25.100;2023-06-10T09:08:07;;;;23.20
70969;BMP280;58630;43.022;25.100;2023-06-10T09:10:34;;;;23.30
70969;BMP280;58630;43.022;25.100;2023-06-10T09:13:00;;;;23.30
70969;BMP280;58630;43.022;25.100;2023-06-10T09:15:25;;;;23.40
70969;BMP280;58630;43.022;25.100;2023-06-10T09:17:51;;;;23.50
70969;BMP280;58630;43.022;25.100;2023-06-10T09:20:17;;;;23.50
70969;BMP280;58630;43.022;25.100;2023-06-10T09:22:42;;;;23.50
70969;BMP280;58630;43.022;25.100;2023-06-10T09:25:09;;;;23.60
70969;BMP280;58630;43.022;25.100;2023-06-10T09:27:45;;;;23.60
70969;BMP280;58630;43.022;25.100;2023-06-10T09:30:27;;;;23.60
70969;BMP280;58630;43.022;25.100;2023-06-10T09:32:54;;;;23.60
70969;BMP280;58630;43.022;25.100;2023-06-10T09:35:22;;;;23.60
70969;BMP280;58630;43.022;25.100;2023-06-10T09:37:48;;;;23.70
70969;BMP280;58630;43.022;25.100;2023-06-10T09:40:15;;;;23.80
70969;BMP280;58630;43.022;25.100;2023-06-10T09:42:40;;;;23.80
70969;BMP280;58630;43.022;25.100;2023-06-10T09:45:06;;;;23.80
70969;BMP280;58630;43.022;25.100;2023-06-10T09:47:32;;;;23.90
70969;BMP280;58630;43.022;25.100;2023-06-10T09:49:58;;;;23.90
70969;BMP280;58630;43.022;25.100;2023-06-10T09:52:24;;;;23.90
70969;BMP280;58630;43.022;25.100;2023-06-10T09:54:50;;;;23.90
70969;BMP280;58630;43.022;25.100;2023-06-10T09:57:17;;;;24.00
70969;BMP280;58630;43.022;25.100;2023-06-10T09:59:42;;;;24.00
70969;BMP280;58630;43.022;25.100;2023-06-10T10:02:17;;;;24.00
70969;BMP280;58630;43.022;25.100;2023-06-10T10:04:46;;;;24.00
70969;BMP280;58630;43.022;25.100;2023-06-10T10:07:12;;;;24.00
70969;BMP280;58630;43.022;25.100;2023-06-10T10:09:38;;;;24.00
70969;BMP280;58630;43.022;25.100;2023-06-10T10:12:08;;;;24.00
70969;BMP280;58630;43.022;25.100;2023-06-10T10:14:35;;;;24.10
70969;BMP280;58630;43.022;25.100;2023-06-10T10:17:01;;;;24.10
70969;BMP280;58630;43.022;25.100;2023-06-10T10:19:30;;;;24.20
70969;BMP280;58630;43.022;25.100;2023-06-10T10:22:00;;;;24.20
70969;BMP280;58630;43.022;25.100;2023-06-10T10:24:30;;;;24.20
70969;BMP280;58630;43.022;25.100;2023-06-10T10:26:58;;;;24.20
70969;BMP280;58630;43.022;25.100;2023-06-10T10:29:27;;;;24.20
70969;BMP280;58630;43.022;25.100;2023-06-10T10:31:54;;;;24.20
70969;BMP280;58630;43.022;25.100;2023-06-10T10:34:24;;;;24.30
70969;BMP280;58630;43.022;25.100;2023-06-10T10:36:52;;;;24.30
70969;BMP280;58630;43.022;25.100;2023-06-10T10:39:17;;;;24.40
70969;BMP280;58630;43.022;25.100;2023-06-10T10:41:43;;;;24.40
70969;BMP280;58630;43.022;25.100;2023-06-10T10:44:09;;;;24.50
70969;BMP280;58630;43.022;25.100;2023-06-10T10:46:48;;;;24.30
70969;BMP280;58630;43.022;25.100;2023-06-10T10:49:14;;;;24.50
70969;BMP280;58630;43.022;25.100;2023-06-10T10:54:27;;;;24.50
70969;BMP280;58630;43.022;25.100;2023-06-10T11:02:37;;;;24.60
70969;BMP280;58630;43.022;25.100;2023-06-10T11:05:06;;;;24.70
70969;BMP280;58630;43.022;25.100;2023-06-10T11:07:32;;;;24.70
70969;BMP280;58630;43.022;25.100;2023-06-10T11:12:24;;;;24.80
70969;BMP280;58630;43.022;25.100;2023-06-10T11:14:55;;;;24.80
70969;BMP280;58630;43.022;25.100;2023-06-10T11:17:21;;;;24.80
70969;BMP280;58630;43.022;25.100;2023-06-10T11:19:47;;;;24.90
70969;BMP280;58630;43.022;25.100;2023-06-10T11:22:16;;;;24.70
70969;BMP280;58630;43.022;25.100;2023-06-10T11:24:46;;;;24.70
70969;BMP280;58630;43.022;25.100;2023-06-10T11:27:19;;;;24.60
70969;BMP280;58630;43.022;25.100;2023-06-10T11:29:58;;;;24.70
70969;BMP280;58630;43.022;25.100;2023-06-10T11:32:31;;;;24.60
70969;BMP280;58630;43.022;25.100;2023-06-10T11:34:57;;;;24.70
70969;BMP280;58630;43.022;25.100;2023-06-10T11:37:23;;;;24.80
70969;BMP280;58630;43.022;25.100;2023-06-10T11:39:52;;;;24.90
70969;BMP280;58630;43.022;25.100;2023-06-10T11:42:18;;;;25.00
70969;BMP280;58630;43.022;25.100;2023-06-10T11:44:51;;;;25.10
70969;BMP280;58630;43.022;25.100;2023-06-10T11:47:17;;;;25.30
70969;BMP280;58630;43.022;25.100;2023-06-10T11:49:42;;;;25.30
70969;BMP280;58630;43.022;25.100;2023-06-10T11:52:08;;;;25.50
70969;BMP280;58630;43.022;25.100;2023-06-10T11:54:34;;;;25.60
70969;BMP280;58630;43.022;25.100;2023-06-10T11:56:59;;;;25.60
70969;BMP280;58630;43.022;25.100;2023-06-10T11:59:29;;;;25.70
70969;BMP280;58630;43.022;25.100;2023-06-10T12:01:54;;;;25.90
70969;BMP280;58630;43.022;25.100;2023-06-10T12:04:20;;;;25.90
70969;BMP280;58630;43.022;25.100;2023-06-10T12:06:50;;;;26.10
70969;BMP280;58630;43.022;25.100;2023-06-10T12:09:20;;;;26.00
70969;BMP280;58630;43.022;25.100;2023-06-10T12:11:48;;;;25.90
70969;BMP280;58630;43.022;25.100;2023-06-10T12:14:14;;;;25.90
70969;BMP280;58630;43.022;25.100;2023-06-10T12:16:39;;;;25.80
70969;BMP280;58630;43.022;25.100;2023-06-10T12:19:05;;;;25.70
70969;BMP280;58630;43.022;25.100;2023-06-10T12:21:32;;;;25.60
70969;BMP280;58630;43.022;25.100;2023-06-10T12:24:02;;;;25.60
70969;BMP280;58630;43.022;25.100;2023-06-10T12:26:37;;;;25.60
70969;BMP280;58630;43.022;25.100;2023-06-10T12:29:17;;;;25.70
70969;BMP280;58630;43.022;25.100;2023-06-10T12:31:57;;;;25.80
70969;BMP280;58630;43.022;25.100;2023-06-10T12:34:30;;;;25.80
70969;BMP280;58630;43.022;25.100;2023-06-10T12:36:56;;;;25.90
70969;BMP280;58630;43.022;25.100;2023-06-10T12:39:22;;;;25.90
70969;BMP280;58630;43.022;25.100;2023-06-10T12:41:48;;;;25.90
70969;BMP280;58630;43.022;25.100;2023-06-10T12:44:13;;;;25.90
70969;BMP280;58630;43.022;25.100;2023-06-10T12:46:39;;;;26.00
70969;BMP280;58630;43.022;25.100;2023-06-10T12:49:05;;;;26.10
70969;BMP280;58630;43.022;25.100;2023-06-10T12:51:30;;;;26.20
70969;BMP280;58630;43.022;25.100;2023-06-10T12:53:56;;;;26.40
70969;BMP280;58630;43.022;25.100;2023-06-10T12:56:22;;;;26.60
70969;BMP280;58630;43.022;25.100;2023-06-10T12:58:49;;;;26.50
70969;BMP280;58630;43.022;25.100;2023-06-10T13:01:14;;;;26.50
70969;BMP280;58630;43.022;25.100;2023-06-10T13:03:40;;;;26.40
70969;BMP280;58630;43.022;25.100;2023-06-10T13:06:06;;;;26.50
70969;BMP280;58630;43.022;25.100;2023-06-10T13:08:32;;;;26.70
70969;BMP280;58630;43.022;25.100;2023-06-10T13:10:57;;;;26.70
70969;BMP280;58630;43.022;25.100;2023-06-10T13:13:23;;;;26.60
70969;BMP280;58630;43.022;25.100;2023-06-10T13:15:49;;;;26.70
70969;BMP280;58630;43.022;25.100;2023-06-10T13:18:15;;;;26.80
70969;BMP280;58630;43.022;25.100;2023-06-10T13:20:44;;;;26.80
70969;BMP280;58630;43.022;25.100;2023-06-10T13:23:09;;;;26.70
70969;BMP280;58630;43.022;25.100;2023-06-10T13:25:35;;;;26.70
70969;BMP280;58630;43.022;25.100;2023-06-10T13:28:01;;;;26.90
70969;BMP280;58630;43.022;25.100;2023-06-10T13:30:26;;;;26.80
70969;BMP280;58630;43.022;25.100;2023-06-10T13:32:52;;;;26.80
70969;BMP280;58630;43.022;25.100;2023-06-10T13:35:18;;;;26.70
70969;BMP280;58630;43.022;25.100;2023-06-10T13:37:43;;;;26.60
70969;BMP280;58630;43.022;25.100;2023-06-10T13:40:09;;;;26.50
70969;BMP280;58630;43.022;25.100;2023-06-10T13:42:35;;;;26.50
70969;BMP280;58630;43.022;25.100;2023-06-10T13:45:01;;;;26.50
70969;BMP280;58630;43.022;25.100;2023-06-10T13:47:27;;;;26.60
70969;BMP280;58630;43.022;25.100;2023-06-10T13:49:53;;;;26.70
70969;BMP280;58630;43.022;25.100;2023-06-10T13:52:18;;;;26.60
70969;BMP280;58630;43.022;25.100;2023-06-10T13:54:44;;;;26.70
70969;BMP280;58630;43.022;25.100;2023-06-10T13:57:10;;;;26.80
70969;BMP280;58630;43.022;25.100;2023-06-10T13:59:36;;;;27.00
70969;BMP280;58630;43.022;25.100;2023-06-10T14:02:01;;;;27.10
70969;BMP280;58630;43.022;25.100;2023-06-10T14:04:27;;;;27.10
70969;BMP280;58630;43.022;25.100;2023-06-10T14:06:52;;;;27.30
70969;BMP280;58630;43.022;25.100;2023-06-10T14:09:18;;;;27.20
70969;BMP280;58630;43.022;25.100;2023-06-10T14:11:44;;;;27.20
70969;BMP280;58630;43.022;25.100;2023-06-10T14:14:10;;;;27.20
70969;BMP280;58630;43.022;25.100;2023-06-10T14:16:35;;;;27.40
70969;BMP280;58630;43.022;25.100;2023-06-10T14:19:01;;;;27.50
70969;BMP280;58630;43.022;25.100;2023-06-10T14:21:26;;;;27.50
70969;BMP280;58630;43.022;25.100;2023-06-10T14:23:52;;;;27.50
70969;BMP280;58630;43.022;25.100;2023-06-10T14:26:18;;;;27.40
70969;BMP280;58630;43.022;25.100;2023-06-10T14:28:44;;;;27.40
70969;BMP280;58630;43.022;25.100;2023-06-10T14:31:10;;;;27.30
70969;BMP280;58630;43.022;25.100;2023-06-10T14:33:36;;;;27.30
70969;BMP280;58630;43.022;25.100;2023-06-10T14:36:01;;;;27.30
70969;BMP280;58630;43.022;25.100;2023-06-10T14:38:27;;;;27.40
70969;BMP280;58630;43.022;25.100;2023-06-10T14:40:53;;;;27.30
70969;BMP280;58630;43.022;25.100;2023-06-10T14:43:18;;;;27.40
70969;BMP280;58630;43.022;25.100;2023-06-10T14:45:44;;;;27.30
70969;BMP280;58630;43.022;25.100;2023-06-10T14:48:10;;;;27.30
70969;BMP280;58630;43.022;25.100;2023-06-10T14:50:36;;;;27.20
70969;BMP280;58630;43.022;25.100;2023-06-10T14:53:02;;;;27.20
70969;BMP280;58630;43.022;25.100;2023-06-10T14:55:28;;;;27.20
70969;BMP280;58630;43.022;25.100;2023-06-10T14:57:53;;;;27.20
70969;BMP280;58630;43.022;25.100;2023-06-10T15:00:19;;;;27.20
70969;BMP280;58630;43.022;25.100;2023-06-10T15:02:47;;;;27.20
70969;BMP280;58630;43.022;25.100;2023-06-10T15:05:14;;;;27.30
70969;BMP280;58630;43.022;25.100;2023-06-10T15:07:40;;;;27.60
70969;BMP280;58630;43.022;25.100;2023-06-10T15:10:06;;;;27.90
70969;BMP280;58630;43.022;25.100;2023-06-10T15:12:32;;;;27.90
70969;BMP280;58630;43.022;25.100;2023-06-10T15:14:57;;;;27.80
70969;BMP280;58630;43.022;25.100;2023-06-10T15:17:23;;;;27.80
70969;BMP280;58630;43.022;25.100;2023-06-10T15:19:48;;;;27.80
70969;BMP280;58630;43.022;25.100;2023-06-10T15:22:14;;;;27.80
70969;BMP280;58630;43.022;25.100;2023-06-10T15:24:39;;;;27.70
70969;BMP280;58630;43.022;25.100;2023-06-10T15:27:05;;;;27.70
70969;BMP280;58630;43.022;25.100;2023-06-10T15:29:31;;;;27.70
70969;BMP280;58630;43.022;25.100;2023-06-10T15:31:57;;;;27.70
70969;BMP280;58630;43.022;25.100;2023-06-10T15:34:23;;;;27.80
70969;BMP280;58630;43.022;25.100;2023-06-10T15:36:48;;;;27.80
70969;BMP280;58630;43.022;25.100;2023-06-10T15:39:14;;;;27.70
70969;BMP280;58630;43.022;25.100;2023-06-10T15:41:39;;;;27.70
70969;BMP280;58630;43.022;25.100;2023-06-10T15:44:05;;;;27.90
70969;BMP280;58630;43.022;25.100;2023-06-10T15:46:31;;;;28.10
70969;BMP280;58630;43.022;25.100;2023-06-10T15:48:56;;;;28.20
70969;BMP280;58630;43.022;25.100;2023-06-10T15:51:22;;;;28.10
70969;BMP280;58630;43.022;25.100;2023-06-10T15:53:48;;;;28.20
70969;BMP280;58630;43.022;25.100;2023-06-10T15:56:14;;;;28.40
70969;BMP280;58630;43.022;25.100;2023-06-10T15:58:39;;;;28.30